sensor_id;sensor_type;location;lat;lon;timestamp;pressure;altitude;pressure_sealevel;temperature;humidity
57056;BME280;42945;51.718;5.324;2023-07-08T00:05:00;101419.50;;;17.02;100.00
57056;BME280;42945;51.718;5.324;2023-07-08T00:10:49;101420.31;;;16.91;100.00
57056;BME280;42945;51.718;5.324;2023-07-08T00:16:38;101365.91;;;16.90;100.00
57056;BME280;42945;51.718;5.324;2023-07-08T00:22:26;101390.84;;;16.91;100.00
57056;BME280;42945;51.718;5.324;2023-07-08T00:28:18;101407.91;;;17.37;100.00
57056;BME280;42945;51.718;5.324;2023-07-08T00:33:48;101445.13;;;16.82;100.00
57056;BME280;42945;51.718;5.324;2023-07-08T00:39:35;101420.41;;;16.65;100.00
57056;BME280;42945;51.718;5.324;2023-07-08T00:51:22;101520.00;;;17.07;100.00
57056;BME280;42945;51.718;5.324;2023-07-08T01:00:43;101431.63;;;16.09;100.00
57056;BME280;42945;51.718;5.324;2023-07-08T01:06:34;101422.63;;;15.98;100.00
57056;BME280;42945;51.718;5.324;2023-07-08T01:12:31;101419.63;;;15.89;100.00
57056;BME280;42945;51.718;5.324;2023-07-08T01:18:22;101463.69;;;16.59;100.00
57056;BME280;42945;51.718;5.324;2023-07-08T01:24:13;101304.16;;;15.33;100.00
57056;BME280;42945;51.718;5.324;2023-07-08T01:30:02;101381.09;;;16.05;100.00
57056;BME280;42945;51.718;5.324;2023-07-08T01:35:52;101395.66;;;16.01;100.00
57056;BME280;42945;51.718;5.324;2023-07-08T01:41:41;101585.44;;;16.92;100.00
57056;BME280;42945;51.718;5.324;2023-07-08T01:47:28;101382.41;;;15.61;100.00
57056;BME280;42945;51.718;5.324;2023-07-08T01:53:22;101419.00;;;15.47;100.00
57056;BME280;42945;51.718;5.324;2023-07-08T01:58:58;101244.75;;;14.78;100.00
57056;BME280;42945;51.718;5.324;2023-07-08T02:04:46;101138.84;;;14.00;100.00
57056;BME280;42945;51.718;5.324;2023-07-08T02:10:34;101437.81;;;15.46;100.00
57056;BME280;42945;51.718;5.324;2023-07-08T02:16:22;101278.47;;;14.66;100.00
57056;BME280;42945;51.718;5.324;2023-07-08T02:22:10;101391.69;;;15.29;100.00
57056;BME280;42945;51.718;5.324;2023-07-08T02:27:59;101452.69;;;15.63;100.00
57056;BME280;42945;51.718;5.324;2023-07-08T02:33:48;101326.28;;;15.09;100.00
57056;BME280;42945;51.718;5.324;2023-07-08T02:39:35;101329.63;;;15.26;100.00
57056;BME280;42945;51.718;5.324;2023-07-08T02:45:23;101314.22;;;15.16;100.00
57056;BME280;42945;51.718;5.324;2023-07-08T02:51:11;101388.41;;;15.26;100.00
57056;BME280;42945;51.718;5.324;2023-07-08T02:57:00;101345.22;;;15.06;100.00
57056;BME280;42945;51.718;5.324;2023-07-08T03:02:48;101353.75;;;14.99;100.00
57056;BME280;42945;51.718;5.324;2023-07-08T03:08:38;101232.91;;;14.29;100.00
57056;BME280;42945;51.718;5.324;2023-07-08T03:14:25;101340.16;;;15.02;100.00
57056;BME280;42945;51.718;5.324;2023-07-08T03:20:14;101379.06;;;14.93;100.00
57056;BME280;42945;51.718;5.324;2023-07-08T03:26:03;101338.09;;;14.80;100.00
57056;BME280;42945;51.718;5.324;2023-07-08T03:31:50;101341.38;;;14.70;100.00
57056;BME280;42945;51.718;5.324;2023-07-08T03:37:38;101385.09;;;14.82;100.00
57056;BME280;42945;51.718;5.324;2023-07-08T03:43:25;101399.06;;;14.73;100.00
57056;BME280;42945;51.718;5.324;2023-07-08T03:49:13;101425.16;;;14.82;100.00
57056;BME280;42945;51.718;5.324;2023-07-08T03:55:01;101352.63;;;14.88;100.00
57056;BME280;42945;51.718;5.324;2023-07-08T04:04:40;101394.72;;;14.85;100.00
57056;BME280;42945;51.718;5.324;2023-07-08T04:10:28;101374.22;;;14.98;100.00
57056;BME280;42945;51.718;5.324;2023-07-08T04:16:27;101365.28;;;14.99;100.00
57056;BME280;42945;51.718;5.324;2023-07-08T04:22:16;101387.72;;;15.09;100.00
57056;BME280;42945;51.718;5.324;2023-07-08T04:28:05;101398.44;;;15.35;100.00
57056;BME280;42945;51.718;5.324;2023-07-08T04:33:52;101374.59;;;15.32;100.00
57056;BME280;42945;51.718;5.324;2023-07-08T04:39:40;101427.13;;;15.59;100.00
57056;BME280;42945;51.718;5.324;2023-07-08T04:45:28;101391.84;;;15.79;100.00
57056;BME280;42945;51.718;5.324;2023-07-08T04:51:16;101561.59;;;17.37;100.00
57056;BME280;42945;51.718;5.324;2023-07-08T04:57:07;101216.22;;;15.67;100.00
57056;BME280;42945;51.718;5.324;2023-07-08T05:06:49;101354.69;;;16.72;100.00
57056;BME280;42945;51.718;5.324;2023-07-08T05:12:38;101229.09;;;16.45;100.00
57056;BME280;42945;51.718;5.324;2023-07-08T05:18:27;101346.59;;;17.32;100.00
57056;BME280;42945;51.718;5.324;2023-07-08T05:24:14;101266.03;;;17.00;100.00
57056;BME280;42945;51.718;5.324;2023-07-08T05:30:04;101239.31;;;17.66;0.00
57056;BME280;42945;51.718;5.324;2023-07-08T05:35:53;101254.66;;;17.98;100.00
57056;BME280;42945;51.718;5.324;2023-07-08T05:41:42;101312.25;;;18.37;100.00
57056;BME280;42945;51.718;5.324;2023-07-08T05:47:29;101200.41;;;17.94;100.00
57056;BME280;42945;51.718;5.324;2023-07-08T05:53:19;101188.38;;;18.09;100.00
57056;BME280;42945;51.718;5.324;2023-07-08T05:59:07;101260.66;;;18.55;100.00
57056;BME280;42945;51.718;5.324;2023-07-08T06:08:51;101672.66;;;19.76;100.00
57056;BME280;42945;51.718;5.324;2023-07-08T06:14:38;101317.53;;;19.75;100.00
57056;BME280;42945;51.718;5.324;2023-07-08T06:20:27;101307.44;;;20.17;100.00
57056;BME280;42945;51.718;5.324;2023-07-08T06:26:15;101247.94;;;19.60;100.00
57056;BME280;42945;51.718;5.324;2023-07-08T06:32:03;101306.34;;;20.59;100.00
57056;BME280;42945;51.718;5.324;2023-07-08T06:37:51;101326.34;;;20.85;100.00
57056;BME280;42945;51.718;5.324;2023-07-08T06:43:38;101297.88;;;21.20;100.00
57056;BME280;42945;51.718;5.324;2023-07-08T06:49:26;101340.06;;;21.12;100.00
57056;BME280;42945;51.718;5.324;2023-07-08T06:55:14;101314.44;;;21.45;100.00
57056;BME280;42945;51.718;5.324;2023-07-08T07:01:02;101325.00;;;21.66;100.00
57056;BME280;42945;51.718;5.324;2023-07-08T07:10:24;101294.63;;;22.10;100.00
57056;BME280;42945;51.718;5.324;2023-07-08T07:16:12;101382.00;;;23.00;100.00
57056;BME280;42945;51.718;5.324;2023-07-08T07:22:01;101196.63;;;21.99;100.00
57056;BME280;42945;51.718;5.324;2023-07-08T07:27:49;101271.94;;;23.00;100.00
57056;BME280;42945;51.718;5.324;2023-07-08T07:33:37;101275.78;;;23.16;100.00
57056;BME280;42945;51.718;5.324;2023-07-08T07:39:24;101288.53;;;23.66;100.00
57056;BME280;42945;51.718;5.324;2023-07-08T07:45:13;101308.19;;;23.68;100.00
57056;BME280;42945;51.718;5.324;2023-07-08T07:51:03;101239.22;;;23.89;93.88
57056;BME280;42945;51.718;5.324;2023-07-08T07:56:52;101313.63;;;24.19;94.84
57056;BME280;42945;51.718;5.324;2023-07-08T08:02:40;101282.31;;;24.41;92.63
57056;BME280;42945;51.718;5.324;2023-07-08T08:12:00;101300.47;;;24.73;90.75
57056;BME280;42945;51.718;5.324;2023-07-08T08:17:49;101353.47;;;25.50;93.54
57056;BME280;42945;51.718;5.324;2023-07-08T08:23:39;101313.50;;;25.11;91.86
57056;BME280;42945;51.718;5.324;2023-07-08T08:29:27;101330.81;;;25.26;87.38
57056;BME280;42945;51.718;5.324;2023-07-08T08:35:16;101271.34;;;25.48;88.64
57056;BME280;42945;51.718;5.324;2023-07-08T08:41:22;101201.69;;;25.15;83.65
57056;BME280;42945;51.718;5.324;2023-07-08T08:53:12;101313.88;;;26.03;78.66
57056;BME280;42945;51.718;5.324;2023-07-08T09:04:58;101405.56;;;27.18;79.66
57056;BME280;42945;51.718;5.324;2023-07-08T09:14:51;101297.16;;;26.84;79.20
57056;BME280;42945;51.718;5.324;2023-07-08T09:20:38;101300.56;;;26.86;79.21
57056;BME280;42945;51.718;5.324;2023-07-08T09:26:28;101316.53;;;27.04;76.41
57056;BME280;42945;51.718;5.324;2023-07-08T09:32:23;101294.91;;;27.55;82.53
57056;BME280;42945;51.718;5.324;2023-07-08T09:38:17;101316.03;;;27.38;80.05
57056;BME280;42945;51.718;5.324;2023-07-08T09:49:54;101194.78;;;27.13;74.29
57056;BME280;42945;51.718;5.324;2023-07-08T09:55:43;101316.00;;;28.56;65.88
57056;BME280;42945;51.718;5.324;2023-07-08T10:01:37;101324.94;;;28.71;66.35
57056;BME280;42945;51.718;5.324;2023-07-08T10:07:29;101409.03;;;29.54;67.40
57056;BME280;42945;51.718;5.324;2023-07-08T10:17:20;101258.34;;;28.94;57.82
57056;BME280;42945;51.718;5.324;2023-07-08T10:35:36;101283.56;;;29.59;61.62
57056;BME280;42945;51.718;5.324;2023-07-08T10:47:40;101309.72;;;29.75;50.13
57056;BME280;42945;51.718;5.324;2023-07-08T10:53:49;101211.63;;;30.33;50.25
57056;BME280;42945;51.718;5.324;2023-07-08T11:05:50;101302.59;;;31.02;41.49
57056;BME280;42945;51.718;5.324;2023-07-08T11:12:04;101138.56;;;30.27;41.08
57056;BME280;42945;51.718;5.324;2023-07-08T11:18:13;101246.91;;;31.73;40.68
57056;BME280;42945;51.718;5.324;2023-07-08T11:24:13;101277.06;;;31.22;41.59
57056;BME280;42945;51.718;5.324;2023-07-08T11:36:01;101244.50;;;31.97;40.73
57056;BME280;42945;51.718;5.324;2023-07-08T11:41:52;101275.06;;;31.55;39.31
57056;BME280;42945;51.718;5.324;2023-07-08T11:47:48;101217.88;;;31.97;39.18
57056;BME280;42945;51.718;5.324;2023-07-08T11:53:37;101169.00;;;31.88;36.08
57056;BME280;42945;51.718;5.324;2023-07-08T11:59:33;101123.75;;;32.04;36.91
57056;BME280;42945;51.718;5.324;2023-07-08T12:05:36;101292.28;;;32.46;36.47
57056;BME280;42945;51.718;5.324;2023-07-08T12:11:34;100999.19;;;31.04;37.76
57056;BME280;42945;51.718;5.324;2023-07-08T12:17:24;101233.31;;;32.99;37.45
57056;BME280;42945;51.718;5.324;2023-07-08T12:23:23;101292.34;;;32.90;35.33
57056;BME280;42945;51.718;5.324;2023-07-08T12:29:13;101255.75;;;32.96;36.43
57056;BME280;42945;51.718;5.324;2023-07-08T12:35:01;101135.47;;;32.98;37.16
57056;BME280;42945;51.718;5.324;2023-07-08T12:40:52;101244.09;;;33.56;34.18
57056;BME280;42945;51.718;5.324;2023-07-08T12:46:41;101220.56;;;33.90;34.27
57056;BME280;42945;51.718;5.324;2023-07-08T12:52:29;101192.16;;;33.66;34.30
57056;BME280;42945;51.718;5.324;2023-07-08T12:58:25;101220.44;;;33.85;31.39
57056;BME280;42945;51.718;5.324;2023-07-08T13:04:22;101216.94;;;33.60;33.59
57056;BME280;42945;51.718;5.324;2023-07-08T13:10:20;101115.91;;;33.25;33.17
57056;BME280;42945;51.718;5.324;2023-07-08T13:20:14;101227.19;;;33.71;32.68
57056;BME280;42945;51.718;5.324;2023-07-08T13:26:24;101263.91;;;34.37;32.20
57056;BME280;42945;51.718;5.324;2023-07-08T13:32:14;101208.75;;;34.79;32.72
57056;BME280;42945;51.718;5.324;2023-07-08T13:38:03;101223.47;;;34.07;32.55
57056;BME280;42945;51.718;5.324;2023-07-08T13:43:51;101119.19;;;33.64;35.66
57056;BME280;42945;51.718;5.324;2023-07-08T13:49:44;101272.75;;;34.39;34.65
57056;BME280;42945;51.718;5.324;2023-07-08T13:55:33;101206.44;;;34.41;34.15
57056;BME280;42945;51.718;5.324;2023-07-08T14:01:24;100796.78;;;34.60;35.74
57056;BME280;42945;51.718;5.324;2023-07-08T14:07:16;101169.72;;;34.70;36.22
57056;BME280;42945;51.718;5.324;2023-07-08T14:13:05;101124.25;;;33.90;32.24
57056;BME280;42945;51.718;5.324;2023-07-08T14:22:56;101334.81;;;36.24;35.18
57056;BME280;42945;51.718;5.324;2023-07-08T14:28:44;101105.38;;;34.77;33.40
57056;BME280;42945;51.718;5.324;2023-07-08T14:34:34;101325.75;;;36.00;33.27
57056;BME280;42945;51.718;5.324;2023-07-08T14:40:36;101294.03;;;35.85;33.08
57056;BME280;42945;51.718;5.324;2023-07-08T14:46:25;101165.13;;;35.00;34.06
57056;BME280;42945;51.718;5.324;2023-07-08T14:52:12;101225.59;;;35.59;32.14
57056;BME280;42945;51.718;5.324;2023-07-08T14:58:02;100980.19;;;33.61;34.36
57056;BME280;42945;51.718;5.324;2023-07-08T15:03:50;101197.47;;;34.57;33.35
57056;BME280;42945;51.718;5.324;2023-07-08T15:09:39;101182.75;;;34.87;33.82
57056;BME280;42945;51.718;5.324;2023-07-08T15:25:17;101263.34;;;33.56;36.75
57056;BME280;42945;51.718;5.324;2023-07-08T15:31:09;101018.63;;;33.14;37.09
57056;BME280;42945;51.718;5.324;2023-07-08T15:37:00;101226.06;;;34.21;36.47
57056;BME280;42945;51.718;5.324;2023-07-08T15:42:51;101108.13;;;32.48;36.40
57056;BME280;42945;51.718;5.324;2023-07-08T15:48:40;101172.91;;;33.48;37.37
57056;BME280;42945;51.718;5.324;2023-07-08T15:54:28;101245.78;;;33.02;86.92
57056;BME280;42945;51.718;5.324;2023-07-08T16:00:19;101164.56;;;32.69;36.81
57056;BME280;42945;51.718;5.324;2023-07-08T16:06:10;101397.38;;;34.35;38.74
57056;BME280;42945;51.718;5.324;2023-07-08T16:11:58;101219.34;;;32.57;39.75
57056;BME280;42945;51.718;5.324;2023-07-08T16:17:46;101236.28;;;32.79;38.91
57056;BME280;42945;51.718;5.324;2023-07-08T16:27:37;101558.19;;;32.56;39.82
57056;BME280;42945;51.718;5.324;2023-07-08T16:33:25;101572.31;;;33.93;38.71
57056;BME280;42945;51.718;5.324;2023-07-08T16:39:13;101213.84;;;35.11;35.89
57056;BME280;42945;51.718;5.324;2023-07-08T16:45:01;101220.84;;;34.66;36.05
57056;BME280;42945;51.718;5.324;2023-07-08T16:50:52;101206.44;;;35.23;35.24
57056;BME280;42945;51.718;5.324;2023-07-08T16:56:39;101216.81;;;35.74;33.52
57056;BME280;42945;51.718;5.324;2023-07-08T17:02:28;101164.31;;;35.85;33.33
57056;BME280;42945;51.718;5.324;2023-07-08T17:08:17;101197.31;;;35.23;34.75
57056;BME280;42945;51.718;5.324;2023-07-08T17:14:04;101212.69;;;35.47;33.51
57056;BME280;42945;51.718;5.324;2023-07-08T17:19:56;101202.50;;;37.39;33.07
57056;BME280;42945;51.718;5.324;2023-07-08T17:29:41;101213.38;;;36.12;33.83
57056;BME280;42945;51.718;5.324;2023-07-08T17:35:29;101129.47;;;36.91;32.54
57056;BME280;42945;51.718;5.324;2023-07-08T17:41:19;101186.75;;;37.62;32.95
57056;BME280;42945;51.718;5.324;2023-07-08T17:47:09;101353.09;;;38.64;31.65
57056;BME280;42945;51.718;5.324;2023-07-08T17:52:59;101191.56;;;38.04;30.69
57056;BME280;42945;51.718;5.324;2023-07-08T17:58:49;101142.47;;;37.13;30.98
57056;BME280;42945;51.718;5.324;2023-07-08T18:04:39;101223.94;;;34.82;31.97
57056;BME280;42945;51.718;5.324;2023-07-08T18:10:29;101122.91;;;32.47;34.64
57056;BME280;42945;51.718;5.324;2023-07-08T18:16:19;101142.94;;;32.29;35.29
57056;BME280;42945;51.718;5.324;2023-07-08T18:22:09;101231.34;;;32.63;40.03
57056;BME280;42945;51.718;5.324;2023-07-08T18:31:52;101190.16;;;37.47;34.99
57056;BME280;42945;51.718;5.324;2023-07-08T18:37:40;101269.28;;;35.91;40.05
57056;BME280;42945;51.718;5.324;2023-07-08T18:43:30;101242.91;;;35.54;34.50
57056;BME280;42945;51.718;5.324;2023-07-08T18:49:24;101266.28;;;32.99;37.80
57056;BME280;42945;51.718;5.324;2023-07-08T18:55:21;101218.16;;;32.46;39.00
57056;BME280;42945;51.718;5.324;2023-07-08T19:01:20;101238.53;;;31.03;61.67
57056;BME280;42945;51.718;5.324;2023-07-08T19:07:10;101240.19;;;30.17;71.35
57056;BME280;42945;51.718;5.324;2023-07-08T19:12:59;101291.84;;;29.72;67.77
57056;BME280;42945;51.718;5.324;2023-07-08T19:18:49;101162.59;;;28.11;71.83
57056;BME280;42945;51.718;5.324;2023-07-08T19:24:37;101272.34;;;28.84;78.56
57056;BME280;42945;51.718;5.324;2023-07-08T19:34:26;101300.16;;;27.42;100.00
57056;BME280;42945;51.718;5.324;2023-07-08T19:40:14;101301.00;;;27.57;100.00
57056;BME280;42945;51.718;5.324;2023-07-08T19:46:04;101428.53;;;27.39;100.00
57056;BME280;42945;51.718;5.324;2023-07-08T19:51:52;101222.78;;;25.84;100.00
57056;BME280;42945;51.718;5.324;2023-07-08T20:03:35;101345.97;;;26.08;100.00
57056;BME280;42945;51.718;5.324;2023-07-08T20:09:23;101351.94;;;26.03;100.00
57056;BME280;42945;51.718;5.324;2023-07-08T20:15:11;101294.38;;;25.60;100.00
57056;BME280;42945;51.718;5.324;2023-07-08T20:21:00;101307.94;;;25.60;100.00
57056;BME280;42945;51.718;5.324;2023-07-08T20:26:48;101222.50;;;24.84;100.00
57056;BME280;42945;51.718;5.324;2023-07-08T20:36:31;101364.56;;;25.07;100.00
57056;BME280;42945;51.718;5.324;2023-07-08T20:42:26;101233.66;;;24.15;100.00
57056;BME280;42945;51.718;5.324;2023-07-08T20:48:25;101345.75;;;24.65;100.00
57056;BME280;42945;51.718;5.324;2023-07-08T20:54:16;101411.72;;;24.31;100.00
57056;BME280;42945;51.718;5.324;2023-07-08T21:00:04;101050.56;;;24.21;100.00
57056;BME280;42945;51.718;5.324;2023-07-08T21:05:55;101384.91;;;24.11;100.00
57056;BME280;42945;51.718;5.324;2023-07-08T21:11:43;101264.00;;;23.25;100.00
57056;BME280;42945;51.718;5.324;2023-07-08T21:17:32;101378.28;;;23.71;100.00
57056;BME280;42945;51.718;5.324;2023-07-08T21:23:20;101414.75;;;23.59;100.00
57056;BME280;42945;51.718;5.324;2023-07-08T21:29:10;101388.69;;;23.58;100.00
57056;BME280;42945;51.718;5.324;2023-07-08T21:39:03;101406.53;;;23.43;100.00
57056;BME280;42945;51.718;5.324;2023-07-08T21:44:52;101412.25;;;23.39;100.00
57056;BME280;42945;51.718;5.324;2023-07-08T21:50:44;101386.03;;;23.14;100.00
57056;BME280;42945;51.718;5.324;2023-07-08T21:56:36;101414.22;;;22.93;100.00
57056;BME280;42945;51.718;5.324;2023-07-08T22:02:23;101423.13;;;22.86;100.00
57056;BME280;42945;51.718;5.324;2023-07-08T22:08:13;101341.31;;;22.66;100.00
57056;BME280;42945;51.718;5.324;2023-07-08T22:14:03;101651.69;;;24.17;100.00
57056;BME280;42945;51.718;5.324;2023-07-08T22:19:52;101431.53;;;22.83;100.00
57056;BME280;42945;51.718;5.324;2023-07-08T22:25:40;101288.44;;;22.17;100.00
57056;BME280;42945;51.718;5.324;2023-07-08T22:31:39;101434.72;;;22.78;100.00
57056;BME280;42945;51.718;5.324;2023-07-08T22:41:36;101387.03;;;22.77;100.00
57056;BME280;42945;51.718;5.324;2023-07-08T22:47:26;101446.81;;;22.56;100.00
57056;BME280;42945;51.718;5.324;2023-07-08T22:53:17;101450.09;;;22.32;100.00
57056;BME280;42945;51.718;5.324;2023-07-08T22:59:07;101454.25;;;22.26;100.00
57056;BME280;42945;51.718;5.324;2023-07-08T23:04:55;101417.22;;;22.36;100.00
57056;BME280;42945;51.718;5.324;2023-07-08T23:10:43;101550.34;;;22.66;100.00
57056;BME280;42945;51.718;5.324;2023-07-08T23:16:32;101452.69;;;22.14;100.00
57056;BME280;42945;51.718;5.324;2023-07-08T23:22:20;101471.78;;;22.12;100.00
57056;BME280;42945;51.718;5.324;2023-07-08T23:28:12;101473.69;;;21.92;100.00
57056;BME280;42945;51.718;5.324;2023-07-08T23:34:00;101359.53;;;21.06;100.00
57056;BME280;42945;51.718;5.324;2023-07-08T23:43:47;101468.25;;;21.55;100.00
57056;BME280;42945;51.718;5.324;2023-07-08T23:49:36;101365.22;;;20.73;100.00
57056;BME280;42945;51.718;5.324;2023-07-08T23:55:28;101418.09;;;21.42;100.00
